sensor_id;sensor_type;location;lat;lon;timestamp;pressure;altitude;pressure_sealevel;temperature;humidity
41898;BME280;27576;53.366;-1.498;2022-08-05T00:01:58;100578.34;;;15.19;60.86
41898;BME280;27576;53.366;-1.498;2022-08-05T00:04:23;100586.16;;;15.22;60.44
41898;BME280;27576;53.366;-1.498;2022-08-05T00:06:48;100589.66;;;15.18;60.44
41898;BME280;27576;53.366;-1.498;2022-08-05T00:09:14;100602.72;;;15.21;60.30
41898;BME280;27576;53.366;-1.498;2022-08-05T00:11:39;100595.75;;;15.14;61.03
41898;BME280;27576;53.366;-1.498;2022-08-05T00:14:05;100587.06;;;15.08;60.34
41898;BME280;27576;53.366;-1.498;2022-08-05T00:16:30;100588.81;;;15.07;60.95
41898;BME280;27576;53.366;-1.498;2022-08-05T00:18:56;100568.81;;;15.00;60.87
41898;BME280;27576;53.366;-1.498;2022-08-05T00:21:21;100594.88;;;15.12;61.09
41898;BME280;27576;53.366;-1.498;2022-08-05T00:23:47;100554.06;;;14.93;61.16
41898;BME280;27576;53.366;-1.498;2022-08-05T00:26:13;100580.97;;;15.09;61.76
41898;BME280;27576;53.366;-1.498;2022-08-05T00:28:38;100564.47;;;14.99;62.22
41898;BME280;27576;53.366;-1.498;2022-08-05T00:31:05;100577.50;;;15.07;63.19
41898;BME280;27576;53.366;-1.498;2022-08-05T00:33:31;100584.47;;;15.03;62.73
41898;BME280;27576;53.366;-1.498;2022-08-05T00:35:57;100576.69;;;14.94;62.78
41898;BME280;27576;53.366;-1.498;2022-08-05T00:38:22;100560.19;;;14.80;62.78
41898;BME280;27576;53.366;-1.498;2022-08-05T00:40:50;100588.84;;;14.95;63.57
41898;BME280;27576;53.366;-1.498;2022-08-05T00:43:16;100587.97;;;14.93;63.34
41898;BME280;27576;53.366;-1.498;2022-08-05T00:45:42;100586.25;;;14.90;64.20
41898;BME280;27576;53.366;-1.498;2022-08-05T00:48:10;100595.78;;;14.93;64.09
41898;BME280;27576;53.366;-1.498;2022-08-05T00:50:38;100589.72;;;14.91;63.73
41898;BME280;27576;53.366;-1.498;2022-08-05T00:53:03;100592.31;;;14.89;64.52
41898;BME280;27576;53.366;-1.498;2022-08-05T00:55:29;100595.81;;;14.88;64.37
41898;BME280;27576;53.366;-1.498;2022-08-05T00:57:54;100571.50;;;14.69;64.15
41898;BME280;27576;53.366;-1.498;2022-08-05T01:00:19;100587.16;;;14.82;64.68
41898;BME280;27576;53.366;-1.498;2022-08-05T01:02:45;100576.69;;;14.69;64.29
41898;BME280;27576;53.366;-1.498;2022-08-05T01:05:10;100576.72;;;14.72;63.99
41898;BME280;27576;53.366;-1.498;2022-08-05T01:07:36;100592.38;;;14.79;64.28
41898;BME280;27576;53.366;-1.498;2022-08-05T01:10:02;100548.06;;;14.56;63.34
41898;BME280;27576;53.366;-1.498;2022-08-05T01:12:30;100566.28;;;14.63;64.10
41898;BME280;27576;53.366;-1.498;2022-08-05T01:15:04;100587.13;;;14.69;63.82
41898;BME280;27576;53.366;-1.498;2022-08-05T01:28:44;100587.16;;;14.57;64.22
41898;BME280;27576;53.366;-1.498;2022-08-05T01:31:25;100601.06;;;14.65;64.56
41898;BME280;27576;53.366;-1.498;2022-08-05T01:36:46;100600.19;;;14.63;64.44
41898;BME280;27576;53.366;-1.498;2022-08-05T01:39:14;100599.34;;;14.58;64.01
41898;BME280;27576;53.366;-1.498;2022-08-05T01:41:41;100574.97;;;14.44;64.47
41898;BME280;27576;53.366;-1.498;2022-08-05T01:44:08;100579.31;;;14.45;64.30
41898;BME280;27576;53.366;-1.498;2022-08-05T01:46:35;100593.25;;;14.52;64.79
41898;BME280;27576;53.366;-1.498;2022-08-05T01:49:02;100596.72;;;14.49;64.23
41898;BME280;27576;53.366;-1.498;2022-08-05T01:51:34;100596.72;;;14.55;65.10
41898;BME280;27576;53.366;-1.498;2022-08-05T01:54:02;100575.81;;;14.41;65.12
41898;BME280;27576;53.366;-1.498;2022-08-05T01:56:31;100595.84;;;14.53;64.82
41898;BME280;27576;53.366;-1.498;2022-08-05T01:59:01;100601.94;;;14.57;64.92
41898;BME280;27576;53.366;-1.498;2022-08-05T02:01:29;100599.31;;;14.57;65.15
41898;BME280;27576;53.366;-1.498;2022-08-05T02:03:55;100577.59;;;14.47;64.52
41898;BME280;27576;53.366;-1.498;2022-08-05T02:06:22;100542.84;;;14.27;64.05
41898;BME280;27576;53.366;-1.498;2022-08-05T02:08:48;100592.38;;;14.51;63.85
41898;BME280;27576;53.366;-1.498;2022-08-05T02:11:14;100595.84;;;14.50;63.65
41898;BME280;27576;53.366;-1.498;2022-08-05T02:14:04;100581.91;;;14.40;64.00
41898;BME280;27576;53.366;-1.498;2022-08-05T02:17:07;100600.19;;;14.49;63.42
41898;BME280;27576;53.366;-1.498;2022-08-05T02:19:36;100595.81;;;14.45;63.92
41898;BME280;27576;53.366;-1.498;2022-08-05T02:22:18;100605.38;;;14.45;64.67
41898;BME280;27576;53.366;-1.498;2022-08-05T02:24:50;100608.00;;;14.45;63.71
41898;BME280;27576;53.366;-1.498;2022-08-05T02:27:17;100606.25;;;14.41;63.84
41898;BME280;27576;53.366;-1.498;2022-08-05T02:29:45;100583.66;;;14.21;64.16
41898;BME280;27576;53.366;-1.498;2022-08-05T02:32:12;100596.69;;;14.28;64.36
41898;BME280;27576;53.366;-1.498;2022-08-05T02:34:40;100614.94;;;14.40;64.62
41898;BME280;27576;53.366;-1.498;2022-08-05T02:37:08;100600.16;;;14.30;65.12
41898;BME280;27576;53.366;-1.498;2022-08-05T02:39:36;100619.28;;;14.38;64.74
41898;BME280;27576;53.366;-1.498;2022-08-05T02:42:04;100600.16;;;14.23;64.28
41898;BME280;27576;53.366;-1.498;2022-08-05T02:44:31;100604.50;;;14.21;64.59
41898;BME280;27576;53.366;-1.498;2022-08-05T02:46:58;100604.50;;;14.20;65.24
41898;BME280;27576;53.366;-1.498;2022-08-05T02:49:26;100624.50;;;14.27;65.83
41898;BME280;27576;53.366;-1.498;2022-08-05T02:51:52;100627.09;;;14.25;64.82
41898;BME280;27576;53.366;-1.498;2022-08-05T02:54:19;100627.09;;;14.24;65.20
41898;BME280;27576;53.366;-1.498;2022-08-05T02:56:45;100605.34;;;14.08;64.96
41898;BME280;27576;53.366;-1.498;2022-08-05T02:59:12;100613.16;;;14.14;65.75
41898;BME280;27576;53.366;-1.498;2022-08-05T03:01:39;100632.28;;;14.16;65.55
41898;BME280;27576;53.366;-1.498;2022-08-05T03:04:07;100631.41;;;14.17;66.24
41898;BME280;27576;53.366;-1.498;2022-08-05T03:06:36;100602.72;;;13.97;66.40
41898;BME280;27576;53.366;-1.498;2022-08-05T03:09:03;100632.28;;;14.13;66.76
41898;BME280;27576;53.366;-1.498;2022-08-05T03:11:28;100632.28;;;14.13;66.53
41898;BME280;27576;53.366;-1.498;2022-08-05T03:13:54;100626.22;;;14.17;66.23
41898;BME280;27576;53.366;-1.498;2022-08-05T03:16:20;100598.41;;;13.99;66.58
41898;BME280;27576;53.366;-1.498;2022-08-05T03:18:46;100628.81;;;14.17;66.43
41898;BME280;27576;53.366;-1.498;2022-08-05T03:21:11;100622.72;;;14.11;66.23
41898;BME280;27576;53.366;-1.498;2022-08-05T03:23:39;100629.69;;;14.13;66.03
41898;BME280;27576;53.366;-1.498;2022-08-05T03:26:05;100646.19;;;14.12;66.58
41898;BME280;27576;53.366;-1.498;2022-08-05T03:28:31;100634.88;;;13.99;66.98
41898;BME280;27576;53.366;-1.498;2022-08-05T03:30:58;100632.22;;;13.95;67.05
41898;BME280;27576;53.366;-1.498;2022-08-05T03:33:25;100651.38;;;14.03;67.23
41898;BME280;27576;53.366;-1.498;2022-08-05T03:35:51;100664.41;;;14.05;67.88
41898;BME280;27576;53.366;-1.498;2022-08-05T03:38:17;100637.44;;;13.89;68.03
41898;BME280;27576;53.366;-1.498;2022-08-05T03:40:44;100663.53;;;14.01;68.44
41898;BME280;27576;53.366;-1.498;2022-08-05T03:43:10;100645.25;;;13.89;67.71
41898;BME280;27576;53.366;-1.498;2022-08-05T03:45:35;100656.56;;;13.97;67.69
41898;BME280;27576;53.366;-1.498;2022-08-05T03:48:01;100633.06;;;13.77;67.79
41898;BME280;27576;53.366;-1.498;2022-08-05T03:53:16;100655.66;;;13.83;68.07
41898;BME280;27576;53.366;-1.498;2022-08-05T03:55:57;100661.75;;;13.85;69.05
41898;BME280;27576;53.366;-1.498;2022-08-05T03:58:26;100653.00;;;13.75;67.59
41898;BME280;27576;53.366;-1.498;2022-08-05T04:00:55;100666.06;;;13.81;67.74
41898;BME280;27576;53.366;-1.498;2022-08-05T04:03:24;100653.88;;;13.71;68.60
41898;BME280;27576;53.366;-1.498;2022-08-05T04:05:50;100649.53;;;13.68;68.95
41898;BME280;27576;53.366;-1.498;2022-08-05T04:08:16;100665.16;;;13.71;68.85
41898;BME280;27576;53.366;-1.498;2022-08-05T04:10:43;100652.97;;;13.61;69.54
41898;BME280;27576;53.366;-1.498;2022-08-05T04:13:09;100671.22;;;13.66;69.83
41898;BME280;27576;53.366;-1.498;2022-08-05T04:15:35;100671.22;;;13.66;69.54
41898;BME280;27576;53.366;-1.498;2022-08-05T04:18:03;100672.06;;;13.63;69.80
41898;BME280;27576;53.366;-1.498;2022-08-05T04:20:29;100677.28;;;13.63;69.56
41898;BME280;27576;53.366;-1.498;2022-08-05T04:22:54;100647.69;;;13.47;69.76
41898;BME280;27576;53.366;-1.498;2022-08-05T04:25:20;100680.75;;;13.61;69.56
41898;BME280;27576;53.366;-1.498;2022-08-05T04:27:45;100659.84;;;13.50;69.73
41898;BME280;27576;53.366;-1.498;2022-08-05T04:30:11;100678.13;;;13.58;70.54
41898;BME280;27576;53.366;-1.498;2022-08-05T04:32:37;100666.81;;;13.49;69.79
41898;BME280;27576;53.366;-1.498;2022-08-05T04:35:02;100680.72;;;13.55;70.12
41898;BME280;27576;53.366;-1.498;2022-08-05T04:37:28;100672.91;;;13.53;70.72
41898;BME280;27576;53.366;-1.498;2022-08-05T04:39:55;100651.09;;;13.36;70.43
41898;BME280;27576;53.366;-1.498;2022-08-05T04:42:20;100668.50;;;13.41;70.22
41898;BME280;27576;53.366;-1.498;2022-08-05T04:44:45;100651.09;;;13.30;70.61
41898;BME280;27576;53.366;-1.498;2022-08-05T04:47:11;100672.84;;;13.45;71.12
41898;BME280;27576;53.366;-1.498;2022-08-05T04:49:39;100663.28;;;13.41;71.33
41898;BME280;27576;53.366;-1.498;2022-08-05T04:52:05;100683.25;;;13.47;71.63
41898;BME280;27576;53.366;-1.498;2022-08-05T04:54:31;100678.09;;;13.48;71.79
41898;BME280;27576;53.366;-1.498;2022-08-05T04:56:56;100660.63;;;13.32;72.07
41898;BME280;27576;53.366;-1.498;2022-08-05T04:59:21;100651.97;;;13.35;71.89
41898;BME280;27576;53.366;-1.498;2022-08-05T05:01:48;100680.72;;;13.55;71.62
41898;BME280;27576;53.366;-1.498;2022-08-05T05:04:14;100666.81;;;13.48;71.29
41898;BME280;27576;53.366;-1.498;2022-08-05T05:06:39;100647.69;;;13.41;71.33
41898;BME280;27576;53.366;-1.498;2022-08-05T05:09:05;100667.72;;;13.58;70.90
41898;BME280;27576;53.366;-1.498;2022-08-05T05:11:30;100657.25;;;13.51;71.60
41898;BME280;27576;53.366;-1.498;2022-08-05T05:13:55;100632.03;;;13.37;71.16
41898;BME280;27576;53.366;-1.498;2022-08-05T05:16:21;100656.41;;;13.54;71.11
41898;BME280;27576;53.366;-1.498;2022-08-05T05:18:46;100666.84;;;13.63;71.38
41898;BME280;27576;53.366;-1.498;2022-08-05T05:21:12;100680.78;;;13.71;71.68
41898;BME280;27576;53.366;-1.498;2022-08-05T05:23:37;100665.13;;;13.65;71.48
41898;BME280;27576;53.366;-1.498;2022-08-05T05:26:03;100684.25;;;13.75;71.92
41898;BME280;27576;53.366;-1.498;2022-08-05T05:28:28;100675.56;;;13.67;71.94
41898;BME280;27576;53.366;-1.498;2022-08-05T05:30:54;100687.75;;;13.77;71.36
41898;BME280;27576;53.366;-1.498;2022-08-05T05:33:19;100698.19;;;13.80;71.28
41898;BME280;27576;53.366;-1.498;2022-08-05T05:35:45;100672.06;;;13.63;70.83
41898;BME280;27576;53.366;-1.498;2022-08-05T05:38:11;100666.00;;;13.60;70.68
41898;BME280;27576;53.366;-1.498;2022-08-05T05:40:37;100708.63;;;13.85;70.72
41898;BME280;27576;53.366;-1.498;2022-08-05T05:43:02;100704.31;;;13.91;70.92
41898;BME280;27576;53.366;-1.498;2022-08-05T05:45:28;100716.50;;;13.97;71.90
41898;BME280;27576;53.366;-1.498;2022-08-05T05:47:54;100697.38;;;13.87;71.32
41898;BME280;27576;53.366;-1.498;2022-08-05T05:50:19;100715.63;;;14.01;71.11
41898;BME280;27576;53.366;-1.498;2022-08-05T05:52:48;100701.72;;;13.93;71.14
41898;BME280;27576;53.366;-1.498;2022-08-05T05:55:14;100732.19;;;14.12;71.14
41898;BME280;27576;53.366;-1.498;2022-08-05T05:57:41;100714.78;;;14.02;70.53
41898;BME280;27576;53.366;-1.498;2022-08-05T06:00:16;100739.13;;;14.13;70.96
41898;BME280;27576;53.366;-1.498;2022-08-05T06:02:42;100741.75;;;14.13;70.46
41898;BME280;27576;53.366;-1.498;2022-08-05T06:05:10;100738.25;;;14.08;70.60
41898;BME280;27576;53.366;-1.498;2022-08-05T06:07:36;100721.66;;;13.91;70.21
41898;BME280;27576;53.366;-1.498;2022-08-05T06:10:03;100762.56;;;14.09;71.10
41898;BME280;27576;53.366;-1.498;2022-08-05T06:12:29;100748.66;;;13.99;71.27
41898;BME280;27576;53.366;-1.498;2022-08-05T06:14:55;100745.16;;;13.97;72.72
41898;BME280;27576;53.366;-1.498;2022-08-05T06:17:20;100754.72;;;13.98;74.12
41898;BME280;27576;53.366;-1.498;2022-08-05T06:19:45;100743.41;;;13.96;73.51
41898;BME280;27576;53.366;-1.498;2022-08-05T06:22:11;100751.25;;;13.99;74.18
41898;BME280;27576;53.366;-1.498;2022-08-05T06:24:41;100775.59;;;14.10;74.63
41898;BME280;27576;53.366;-1.498;2022-08-05T06:27:06;100749.50;;;14.01;73.64
41898;BME280;27576;53.366;-1.498;2022-08-05T06:29:32;100777.34;;;14.14;73.75
41898;BME280;27576;53.366;-1.498;2022-08-05T06:31:57;100752.97;;;13.95;74.69
41898;BME280;27576;53.366;-1.498;2022-08-05T06:34:23;100775.59;;;14.06;74.96
41898;BME280;27576;53.366;-1.498;2022-08-05T06:36:48;100783.38;;;13.96;74.84
41898;BME280;27576;53.366;-1.498;2022-08-05T06:39:14;100771.97;;;13.76;77.84
41898;BME280;27576;53.366;-1.498;2022-08-05T06:41:39;100782.38;;;13.74;78.14
41898;BME280;27576;53.366;-1.498;2022-08-05T06:44:04;100783.19;;;13.67;77.61
41898;BME280;27576;53.366;-1.498;2022-08-05T06:46:30;100783.97;;;13.54;79.45
41898;BME280;27576;53.366;-1.498;2022-08-05T06:48:56;100773.47;;;13.39;79.69
41898;BME280;27576;53.366;-1.498;2022-08-05T06:51:21;100775.16;;;13.34;83.11
41898;BME280;27576;53.366;-1.498;2022-08-05T06:53:47;100740.22;;;13.07;81.09
41898;BME280;27576;53.366;-1.498;2022-08-05T06:56:12;100772.44;;;13.21;81.83
41898;BME280;27576;53.366;-1.498;2022-08-05T06:58:38;100748.00;;;13.04;83.87
41898;BME280;27576;53.366;-1.498;2022-08-05T07:01:04;100775.88;;;13.19;85.60
41898;BME280;27576;53.366;-1.498;2022-08-05T07:03:30;100775.00;;;13.17;84.74
41898;BME280;27576;53.366;-1.498;2022-08-05T07:05:57;100752.53;;;13.23;87.12
41898;BME280;27576;53.366;-1.498;2022-08-05T07:08:22;100784.81;;;13.50;86.12
41898;BME280;27576;53.366;-1.498;2022-08-05T07:10:49;100773.66;;;13.71;87.65
41898;BME280;27576;53.366;-1.498;2022-08-05T07:13:14;100774.69;;;14.02;88.56
41898;BME280;27576;53.366;-1.498;2022-08-05T07:15:58;100774.00;;;14.43;87.90
41898;BME280;27576;53.366;-1.498;2022-08-05T07:18:42;100745.34;;;14.54;86.28
41898;BME280;27576;53.366;-1.498;2022-08-05T07:21:07;100778.47;;;14.79;83.61
41898;BME280;27576;53.366;-1.498;2022-08-05T07:23:33;100779.28;;;14.69;83.15
41898;BME280;27576;53.366;-1.498;2022-08-05T07:25:59;100782.75;;;14.65;84.21
41898;BME280;27576;53.366;-1.498;2022-08-05T07:28:25;100791.47;;;14.55;83.12
41898;BME280;27576;53.366;-1.498;2022-08-05T07:30:50;100770.50;;;14.36;81.95
41898;BME280;27576;53.366;-1.498;2022-08-05T07:33:16;100794.84;;;14.40;81.68
41898;BME280;27576;53.366;-1.498;2022-08-05T07:35:42;100787.00;;;14.31;82.22
41898;BME280;27576;53.366;-1.498;2022-08-05T07:38:07;100800.88;;;14.30;82.96
41898;BME280;27576;53.366;-1.498;2022-08-05T07:40:33;100788.75;;;14.38;82.03
41898;BME280;27576;53.366;-1.498;2022-08-05T07:42:58;100794.03;;;14.53;83.28
41898;BME280;27576;53.366;-1.498;2022-08-05T07:45:24;100759.28;;;14.54;81.06
41898;BME280;27576;53.366;-1.498;2022-08-05T07:47:50;100777.59;;;14.74;80.14
41898;BME280;27576;53.366;-1.498;2022-08-05T07:50:15;100772.34;;;14.77;80.69
41898;BME280;27576;53.366;-1.498;2022-08-05T07:52:42;100798.50;;;15.18;80.50
41898;BME280;27576;53.366;-1.498;2022-08-05T07:55:08;100789.78;;;15.29;80.46
41898;BME280;27576;53.366;-1.498;2022-08-05T07:57:35;100786.28;;;15.36;78.04
41898;BME280;27576;53.366;-1.498;2022-08-05T08:00:00;100803.69;;;15.61;78.80
41898;BME280;27576;53.366;-1.498;2022-08-05T08:02:27;100799.34;;;15.77;78.07
41898;BME280;27576;53.366;-1.498;2022-08-05T08:04:53;100806.25;;;15.98;76.72
41898;BME280;27576;53.366;-1.498;2022-08-05T08:07:20;100800.97;;;16.13;73.62
41898;BME280;27576;53.366;-1.498;2022-08-05T08:09:46;100789.66;;;16.13;73.80
41898;BME280;27576;53.366;-1.498;2022-08-05T08:12:12;100788.75;;;16.23;71.34
41898;BME280;27576;53.366;-1.498;2022-08-05T08:14:40;100800.91;;;16.32;71.38
41898;BME280;27576;53.366;-1.498;2022-08-05T08:17:06;100815.66;;;16.45;71.11
41898;BME280;27576;53.366;-1.498;2022-08-05T08:19:38;100778.22;;;16.34;70.80
41898;BME280;27576;53.366;-1.498;2022-08-05T08:22:05;100812.97;;;16.57;71.57
41898;BME280;27576;53.366;-1.498;2022-08-05T08:24:30;100804.28;;;16.54;71.56
41898;BME280;27576;53.366;-1.498;2022-08-05T08:26:56;100813.78;;;16.70;70.65
41898;BME280;27576;53.366;-1.498;2022-08-05T08:29:22;100816.38;;;16.78;70.98
41898;BME280;27576;53.366;-1.498;2022-08-05T08:31:48;100789.41;;;16.66;67.07
41898;BME280;27576;53.366;-1.498;2022-08-05T08:34:14;100805.03;;;16.80;68.57
41898;BME280;27576;53.366;-1.498;2022-08-05T08:36:40;100797.16;;;16.85;69.68
41898;BME280;27576;53.366;-1.498;2022-08-05T08:39:06;100821.41;;;17.11;68.58
41898;BME280;27576;53.366;-1.498;2022-08-05T08:41:33;100816.06;;;17.21;68.25
41898;BME280;27576;53.366;-1.498;2022-08-05T08:44:00;100823.09;;;17.17;65.53
41898;BME280;27576;53.366;-1.498;2022-08-05T08:46:28;100817.94;;;17.06;65.05
41898;BME280;27576;53.366;-1.498;2022-08-05T08:48:56;100822.31;;;17.04;65.62
41898;BME280;27576;53.366;-1.498;2022-08-05T08:51:22;100813.72;;;16.90;64.95
41898;BME280;27576;53.366;-1.498;2022-08-05T08:53:48;100794.59;;;16.79;65.33
41898;BME280;27576;53.366;-1.498;2022-08-05T08:56:15;100831.00;;;17.09;63.93
41898;BME280;27576;53.366;-1.498;2022-08-05T08:58:41;100831.91;;;17.07;64.53
41898;BME280;27576;53.366;-1.498;2022-08-05T09:01:07;100804.91;;;17.02;65.12
41898;BME280;27576;53.366;-1.498;2022-08-05T09:03:34;100830.00;;;17.30;63.97
41898;BME280;27576;53.366;-1.498;2022-08-05T09:06:00;100828.03;;;17.52;64.74
41898;BME280;27576;53.366;-1.498;2022-08-05T09:08:25;100814.91;;;17.55;64.53
41898;BME280;27576;53.366;-1.498;2022-08-05T09:10:51;100841.91;;;17.63;64.10
41898;BME280;27576;53.366;-1.498;2022-08-05T09:13:17;100845.53;;;17.50;63.72
41898;BME280;27576;53.366;-1.498;2022-08-05T09:15:44;100843.75;;;17.52;63.31
41898;BME280;27576;53.366;-1.498;2022-08-05T09:18:10;100834.16;;;17.54;62.95
41898;BME280;27576;53.366;-1.498;2022-08-05T09:20:36;100852.31;;;17.76;58.59
41898;BME280;27576;53.366;-1.498;2022-08-05T09:23:10;100840.91;;;17.80;60.61
41898;BME280;27576;53.366;-1.498;2022-08-05T09:25:42;100834.75;;;17.84;57.84
41898;BME280;27576;53.366;-1.498;2022-08-05T09:28:13;100829.41;;;17.96;59.61
41898;BME280;27576;53.366;-1.498;2022-08-05T09:31:09;100828.44;;;18.05;60.16
41898;BME280;27576;53.366;-1.498;2022-08-05T09:33:48;100830.13;;;18.09;59.81
41898;BME280;27576;53.366;-1.498;2022-08-05T09:36:15;100833.41;;;18.28;60.23
41898;BME280;27576;53.366;-1.498;2022-08-05T09:38:57;100832.25;;;18.50;58.39
41898;BME280;27576;53.366;-1.498;2022-08-05T09:41:23;100829.34;;;18.73;58.41
41898;BME280;27576;53.366;-1.498;2022-08-05T09:43:49;100828.22;;;18.91;57.47
41898;BME280;27576;53.366;-1.498;2022-08-05T09:46:31;100836.50;;;19.21;56.69
41898;BME280;27576;53.366;-1.498;2022-08-05T09:48:59;100819.78;;;19.26;55.89
41898;BME280;27576;53.366;-1.498;2022-08-05T09:51:35;100841.31;;;19.48;55.59
41898;BME280;27576;53.366;-1.498;2022-08-05T09:54:06;100833.38;;;19.51;53.64
41898;BME280;27576;53.366;-1.498;2022-08-05T09:56:34;100833.63;;;19.37;54.45
41898;BME280;27576;53.366;-1.498;2022-08-05T09:59:10;100813.50;;;19.35;54.67
41898;BME280;27576;53.366;-1.498;2022-08-05T10:01:40;100826.47;;;19.46;54.28
41898;BME280;27576;53.366;-1.498;2022-08-05T10:04:11;100825.53;;;19.50;52.83
41898;BME280;27576;53.366;-1.498;2022-08-05T10:06:51;100829.75;;;19.58;52.84
41898;BME280;27576;53.366;-1.498;2022-08-05T10:09:18;100832.28;;;19.66;53.58
41898;BME280;27576;53.366;-1.498;2022-08-05T10:11:46;100827.84;;;19.68;53.81
41898;BME280;27576;53.366;-1.498;2022-08-05T10:14:28;100818.00;;;19.81;51.47
41898;BME280;27576;53.366;-1.498;2022-08-05T10:16:55;100816.72;;;20.02;54.70
41898;BME280;27576;53.366;-1.498;2022-08-05T10:19:22;100824.84;;;20.33;52.63
41898;BME280;27576;53.366;-1.498;2022-08-05T10:21:48;100841.13;;;20.53;51.00
41898;BME280;27576;53.366;-1.498;2022-08-05T10:24:18;100826.53;;;20.37;49.50
41898;BME280;27576;53.366;-1.498;2022-08-05T10:26:46;100828.75;;;20.14;51.47
41898;BME280;27576;53.366;-1.498;2022-08-05T10:29:12;100820.31;;;19.98;52.81
41898;BME280;27576;53.366;-1.498;2022-08-05T10:31:38;100843.44;;;20.24;52.67
41898;BME280;27576;53.366;-1.498;2022-08-05T10:34:08;100832.56;;;20.42;52.34
41898;BME280;27576;53.366;-1.498;2022-08-05T10:36:35;100840.84;;;20.67;50.67
41898;BME280;27576;53.366;-1.498;2022-08-05T10:39:05;100841.13;;;20.53;50.82
41898;BME280;27576;53.366;-1.498;2022-08-05T10:41:37;100832.09;;;20.22;50.15
41898;BME280;27576;53.366;-1.498;2022-08-05T10:44:10;100849.81;;;20.12;50.61
41898;BME280;27576;53.366;-1.498;2022-08-05T10:49:10;100850.72;;;20.11;50.56
41898;BME280;27576;53.366;-1.498;2022-08-05T10:51:46;100847.59;;;20.37;49.80
41898;BME280;27576;53.366;-1.498;2022-08-05T10:54:13;100843.53;;;20.64;51.09
41898;BME280;27576;53.366;-1.498;2022-08-05T10:56:52;100837.59;;;20.95;49.50
41898;BME280;27576;53.366;-1.498;2022-08-05T10:59:27;100840.34;;;21.26;48.61
41898;BME280;27576;53.366;-1.498;2022-08-05T11:02:09;100856.44;;;21.14;47.83
41898;BME280;27576;53.366;-1.498;2022-08-05T11:05:03;100858.38;;;21.07;48.61
41898;BME280;27576;53.366;-1.498;2022-08-05T11:07:29;100833.69;;;21.11;48.32
41898;BME280;27576;53.366;-1.498;2022-08-05T11:09:55;100853.09;;;21.46;48.39
41898;BME280;27576;53.366;-1.498;2022-08-05T11:15:18;100860.34;;;21.36;48.27
41898;BME280;27576;53.366;-1.498;2022-08-05T11:17:46;100867.97;;;21.09;47.24
41898;BME280;27576;53.366;-1.498;2022-08-05T11:23:28;100865.72;;;20.93;47.40
41898;BME280;27576;53.366;-1.498;2022-08-05T11:26:05;100855.56;;;21.15;47.17
41898;BME280;27576;53.366;-1.498;2022-08-05T11:33:30;100868.09;;;21.78;44.58
41898;BME280;27576;53.366;-1.498;2022-08-05T11:35:59;100866.09;;;21.86;44.92
41898;BME280;27576;53.366;-1.498;2022-08-05T11:41:19;100867.97;;;21.81;43.74
41898;BME280;27576;53.366;-1.498;2022-08-05T11:44:05;100877.50;;;21.52;46.09
41898;BME280;27576;53.366;-1.498;2022-08-05T11:46:41;100881.38;;;21.39;46.33
41898;BME280;27576;53.366;-1.498;2022-08-05T11:49:10;100886.16;;;21.20;46.74
41898;BME280;27576;53.366;-1.498;2022-08-05T11:51:40;100884.84;;;21.01;46.25
41898;BME280;27576;53.366;-1.498;2022-08-05T11:54:07;100866.06;;;20.77;47.04
41898;BME280;27576;53.366;-1.498;2022-08-05T11:57:02;100884.91;;;20.98;47.89
41898;BME280;27576;53.366;-1.498;2022-08-05T11:59:28;100874.75;;;21.20;47.97
41898;BME280;27576;53.366;-1.498;2022-08-05T12:02:00;100869.00;;;21.41;47.42
41898;BME280;27576;53.366;-1.498;2022-08-05T12:04:28;100867.88;;;21.51;47.19
41898;BME280;27576;53.366;-1.498;2022-08-05T12:07:01;100882.91;;;21.48;46.74
41898;BME280;27576;53.366;-1.498;2022-08-05T12:09:28;100875.59;;;21.59;47.02
41898;BME280;27576;53.366;-1.498;2022-08-05T12:11:53;100882.94;;;21.80;47.32
41898;BME280;27576;53.366;-1.498;2022-08-05T12:14:19;100870.53;;;21.84;46.97
41898;BME280;27576;53.366;-1.498;2022-08-05T12:16:45;100883.81;;;22.15;47.44
41898;BME280;27576;53.366;-1.498;2022-08-05T12:19:15;100886.88;;;22.33;46.13
41898;BME280;27576;53.366;-1.498;2022-08-05T12:21:49;100903.75;;;22.58;44.92
41898;BME280;27576;53.366;-1.498;2022-08-05T12:24:19;100890.31;;;22.66;44.51
41898;BME280;27576;53.366;-1.498;2022-08-05T12:31:38;100900.69;;;22.08;42.46
41898;BME280;27576;53.366;-1.498;2022-08-05T12:34:07;100891.22;;;21.67;43.02
41898;BME280;27576;53.366;-1.498;2022-08-05T12:36:34;100922.50;;;21.46;43.21
41898;BME280;27576;53.366;-1.498;2022-08-05T12:39:00;100895.56;;;20.95;43.84
41898;BME280;27576;53.366;-1.498;2022-08-05T12:41:31;100916.09;;;20.79;45.26
41898;BME280;27576;53.366;-1.498;2022-08-05T12:44:00;100915.59;;;20.60;47.51
41898;BME280;27576;53.366;-1.498;2022-08-05T12:46:28;100896.63;;;20.41;47.20
41898;BME280;27576;53.366;-1.498;2022-08-05T12:49:07;100911.56;;;20.41;47.05
41898;BME280;27576;53.366;-1.498;2022-08-05T12:54:27;100899.59;;;21.09;45.19
41898;BME280;27576;53.366;-1.498;2022-08-05T12:57:02;100908.91;;;21.97;44.17
41898;BME280;27576;53.366;-1.498;2022-08-05T12:59:41;100916.56;;;22.72;43.62
41898;BME280;27576;53.366;-1.498;2022-08-05T13:02:10;100922.44;;;23.39;41.98
41898;BME280;27576;53.366;-1.498;2022-08-05T13:04:42;100892.84;;;23.81;38.90
41898;BME280;27576;53.366;-1.498;2022-08-05T13:07:13;100914.97;;;24.30;36.21
41898;BME280;27576;53.366;-1.498;2022-08-05T13:09:41;100918.63;;;24.76;38.73
41898;BME280;27576;53.366;-1.498;2022-08-05T13:12:11;100921.19;;;25.01;36.99
41898;BME280;27576;53.366;-1.498;2022-08-05T13:14:43;100923.38;;;24.66;38.16
41898;BME280;27576;53.366;-1.498;2022-08-05T13:17:16;100929.25;;;24.51;37.78
41898;BME280;27576;53.366;-1.498;2022-08-05T13:20:06;100887.78;;;23.75;40.71
41898;BME280;27576;53.366;-1.498;2022-08-05T13:22:33;100903.84;;;23.42;41.53
41898;BME280;27576;53.366;-1.498;2022-08-05T13:25:01;100938.41;;;23.36;42.19
41898;BME280;27576;53.366;-1.498;2022-08-05T13:27:31;100930.31;;;23.13;42.02